createdAt,value
2022-09-06T00:00:00.368Z,18.4
2022-09-06T00:01:00.522Z,18.37
2022-09-06T00:02:00.669Z,18.34
2022-09-06T00:03:00.855Z,18.28
2022-09-06T00:04:01.069Z,18.24
2022-09-06T00:05:01.138Z,18.21
2022-09-06T00:06:00.287Z,18.2
2022-09-06T00:07:00.446Z,18.21
2022-09-06T00:08:00.581Z,18.21
2022-09-06T00:09:00.743Z,18.22
2022-09-06T00:10:00.883Z,18.2
2022-09-06T00:11:01.516Z,18.18
2022-09-06T00:12:01.205Z,18.13
2022-09-06T00:13:00.332Z,18.12
2022-09-06T00:14:00.494Z,18.13
2022-09-06T00:15:00.637Z,18.15
2022-09-06T00:16:00.837Z,18.18
2022-09-06T00:17:00.959Z,18.18
2022-09-06T00:18:01.080Z,18.19
2022-09-06T00:19:01.224Z,18.18
2022-09-06T00:20:00.358Z,18.17
2022-09-06T00:21:00.504Z,18.15
2022-09-06T00:22:00.662Z,18.14
2022-09-06T00:23:00.814Z,18.13
2022-09-06T00:24:00.953Z,18.13
2022-09-06T00:25:01.084Z,18.14
2022-09-06T00:26:01.233Z,18.12
2022-09-06T00:27:00.374Z,18.09
2022-09-06T00:28:00.543Z,18.1
2022-09-06T00:29:00.672Z,18.1
2022-09-06T00:30:00.830Z,18.11
2022-09-06T00:31:01.041Z,18.11
2022-09-06T00:32:01.129Z,18.09
2022-09-06T00:33:00.300Z,18.09
2022-09-06T00:34:00.435Z,18.09
2022-09-06T00:35:00.589Z,18.08
2022-09-06T00:36:00.739Z,18.07
2022-09-06T00:37:00.888Z,18.04
2022-09-06T00:38:01.062Z,18.04
2022-09-06T00:39:01.178Z,17.99
2022-09-06T00:40:00.565Z,17.94
2022-09-06T00:41:00.476Z,17.9
2022-09-06T00:42:00.624Z,17.87
2022-09-06T00:43:00.787Z,17.87
2022-09-06T00:44:00.917Z,17.88
2022-09-06T00:45:01.070Z,17.88
2022-09-06T00:46:01.246Z,17.87
2022-09-06T00:47:00.356Z,17.85
2022-09-06T00:48:00.521Z,17.85
2022-09-06T00:49:00.668Z,17.87
2022-09-06T00:50:00.807Z,17.87
2022-09-06T00:51:00.963Z,17.85
2022-09-06T00:52:01.102Z,17.83
2022-09-06T00:53:01.239Z,17.8
2022-09-06T00:54:00.425Z,17.78
2022-09-06T00:55:00.570Z,17.76
2022-09-06T00:56:00.705Z,17.78
2022-09-06T00:57:00.848Z,17.8
2022-09-06T00:58:01.007Z,17.81
2022-09-06T00:59:01.151Z,17.83
2022-09-06T01:00:00.317Z,17.84
2022-09-06T01:01:00.450Z,17.85
2022-09-06T01:02:00.755Z,17.87
2022-09-06T01:03:00.748Z,17.85
2022-09-06T01:04:00.906Z,17.82
2022-09-06T01:05:01.090Z,17.79
2022-09-06T01:06:01.234Z,17.79
2022-09-06T01:07:00.363Z,17.79
2022-09-06T01:08:00.510Z,17.81
2022-09-06T01:09:00.662Z,17.81
2022-09-06T01:10:00.835Z,17.82
2022-09-06T01:11:00.969Z,17.83
2022-09-06T01:12:01.113Z,17.84
2022-09-06T01:13:00.262Z,17.84
2022-09-06T01:14:00.404Z,17.81
2022-09-06T01:15:00.564Z,17.77
2022-09-06T01:16:00.811Z,17.77
2022-09-06T01:17:00.840Z,17.77
2022-09-06T01:18:00.987Z,17.77
2022-09-06T01:19:01.136Z,17.76
2022-09-06T01:20:00.284Z,17.77
2022-09-06T01:21:00.442Z,17.76
2022-09-06T01:22:00.591Z,17.77
2022-09-06T01:23:00.734Z,17.78
2022-09-06T01:24:00.878Z,17.77
2022-09-06T01:25:01.032Z,17.75
2022-09-06T01:26:01.173Z,17.73
2022-09-06T01:27:00.315Z,17.72
2022-09-06T01:28:00.496Z,17.68
2022-09-06T01:29:00.650Z,17.69
2022-09-06T01:30:00.822Z,17.69
2022-09-06T01:31:00.970Z,17.68
2022-09-06T01:32:01.085Z,17.68
2022-09-06T01:33:01.232Z,17.68
2022-09-06T01:34:00.373Z,17.68
2022-09-06T01:35:00.534Z,17.67
2022-09-06T01:36:00.674Z,17.67
2022-09-06T01:37:09.854Z,17.67
2022-09-06T01:38:00.967Z,17.66
2022-09-06T01:39:01.113Z,17.66
2022-09-06T01:40:00.381Z,17.66
2022-09-06T01:41:00.422Z,17.63
2022-09-06T01:42:00.557Z,17.64
2022-09-06T01:43:00.722Z,17.64
2022-09-06T01:44:00.879Z,17.63
2022-09-06T01:45:01.036Z,17.61
2022-09-06T01:46:01.263Z,17.58
2022-09-06T01:47:00.332Z,17.54
2022-09-06T01:48:00.465Z,17.5
2022-09-06T01:49:00.603Z,17.46
2022-09-06T01:50:00.758Z,17.44
2022-09-06T01:51:00.914Z,17.41
2022-09-06T01:52:01.084Z,17.39
2022-09-06T01:53:01.210Z,17.38
2022-09-06T01:54:00.352Z,17.37
2022-09-06T01:55:00.502Z,17.35
2022-09-06T01:56:00.642Z,17.33
2022-09-06T01:57:00.813Z,17.32
2022-09-06T01:58:00.964Z,17.31
2022-09-06T01:59:01.091Z,17.32
2022-09-06T02:00:01.238Z,17.32
2022-09-06T02:01:00.389Z,17.3
2022-09-06T02:02:00.553Z,17.32
2022-09-06T02:03:00.683Z,17.32
2022-09-06T02:04:00.832Z,17.33
2022-09-06T02:05:00.981Z,17.35
2022-09-06T02:06:01.136Z,17.37
2022-09-06T02:07:00.287Z,17.38
2022-09-06T02:08:00.437Z,17.38
2022-09-06T02:09:00.578Z,17.39
2022-09-06T02:10:00.719Z,17.39
2022-09-06T02:11:00.864Z,17.39
2022-09-06T02:12:01.038Z,17.38
2022-09-06T02:13:01.157Z,17.38
2022-09-06T02:14:00.306Z,17.38
2022-09-06T02:15:00.452Z,17.39
2022-09-06T02:16:00.597Z,17.4
2022-09-06T02:17:00.809Z,17.4
2022-09-06T02:18:00.917Z,17.4
2022-09-06T02:19:01.034Z,17.41
2022-09-06T02:20:01.191Z,17.41
2022-09-06T02:21:00.341Z,17.41
2022-09-06T02:22:00.491Z,17.41
2022-09-06T02:23:00.644Z,17.43
2022-09-06T02:24:00.787Z,17.41
2022-09-06T02:25:00.939Z,17.4
2022-09-06T02:26:01.085Z,17.4
2022-09-06T02:27:01.226Z,17.41
2022-09-06T02:28:00.374Z,17.4
2022-09-06T02:29:00.501Z,17.4
2022-09-06T02:30:00.652Z,17.4
2022-09-06T02:31:00.896Z,17.39
2022-09-06T02:32:00.949Z,17.38
2022-09-06T02:33:01.122Z,17.39
2022-09-06T02:34:01.269Z,17.39
2022-09-06T02:35:00.394Z,17.39
2022-09-06T02:36:00.547Z,17.4
2022-09-06T02:37:00.697Z,17.41
2022-09-06T02:38:00.872Z,17.44
2022-09-06T02:39:00.980Z,17.45
2022-09-06T02:40:01.198Z,17.46
2022-09-06T02:41:00.298Z,17.46
2022-09-06T02:42:00.436Z,17.47
2022-09-06T02:43:00.593Z,17.46
2022-09-06T02:44:00.749Z,17.48
2022-09-06T02:45:00.873Z,17.48
2022-09-06T02:46:01.167Z,17.46
2022-09-06T02:47:01.175Z,17.46
2022-09-06T02:48:00.321Z,17.45
2022-09-06T02:49:00.468Z,17.45
2022-09-06T02:50:00.603Z,17.43
2022-09-06T02:51:00.777Z,17.4
2022-09-06T02:52:00.905Z,17.38
2022-09-06T02:53:01.067Z,17.36
2022-09-06T02:54:01.214Z,17.35
2022-09-06T02:55:00.360Z,17.35
2022-09-06T02:56:00.516Z,17.35
2022-09-06T02:57:00.649Z,17.36
2022-09-06T02:58:00.814Z,17.34
2022-09-06T02:59:00.949Z,17.31
2022-09-06T03:00:01.109Z,17.3
2022-09-06T03:01:01.351Z,17.29
2022-09-06T03:02:00.486Z,17.29
2022-09-06T03:03:00.545Z,17.3
2022-09-06T03:04:00.687Z,17.31
2022-09-06T03:05:00.822Z,17.31
2022-09-06T03:06:00.970Z,17.3
2022-09-06T03:07:01.153Z,17.3
2022-09-06T03:08:00.270Z,17.28
2022-09-06T03:09:00.421Z,17.26
2022-09-06T03:10:00.567Z,17.26
2022-09-06T03:11:00.718Z,17.26
2022-09-06T03:12:00.879Z,17.26
2022-09-06T03:13:01.020Z,17.26
2022-09-06T03:14:01.152Z,17.26
2022-09-06T03:15:00.307Z,17.26
2022-09-06T03:16:00.444Z,17.28
2022-09-06T03:17:00.635Z,17.28
2022-09-06T03:18:00.770Z,17.28
2022-09-06T03:19:00.897Z,17.28
2022-09-06T03:20:01.038Z,17.26
2022-09-06T03:21:01.186Z,17.25
2022-09-06T03:22:00.322Z,17.25
2022-09-06T03:23:00.501Z,17.26
2022-09-06T03:24:00.628Z,17.26
2022-09-06T03:25:00.772Z,17.28
2022-09-06T03:26:00.923Z,17.26
2022-09-06T03:27:01.075Z,17.25
2022-09-06T03:28:01.239Z,17.25
2022-09-06T03:29:00.367Z,17.24
2022-09-06T03:30:00.515Z,17.24
2022-09-06T03:31:00.766Z,17.21
2022-09-06T03:32:00.817Z,17.2
2022-09-06T03:33:02.809Z,17.18
2022-09-06T03:34:01.112Z,17.2
2022-09-06T03:35:01.248Z,17.22
2022-09-06T03:36:00.403Z,17.21
2022-09-06T03:37:00.544Z,17.21
2022-09-06T03:38:00.719Z,17.21
2022-09-06T03:39:00.844Z,17.21
2022-09-06T03:40:01.042Z,17.21
2022-09-06T03:41:01.156Z,17.2
2022-09-06T03:42:00.293Z,17.2
2022-09-06T03:43:00.474Z,17.18
2022-09-06T03:44:00.608Z,17.18
2022-09-06T03:45:00.756Z,17.18
2022-09-06T03:46:00.937Z,17.17
2022-09-06T03:47:01.037Z,17.17
2022-09-06T03:48:01.207Z,17.18
2022-09-06T03:49:00.342Z,17.18
2022-09-06T03:50:00.482Z,17.18
2022-09-06T03:51:00.624Z,17.17
2022-09-06T03:52:00.791Z,17.2
2022-09-06T03:53:00.919Z,17.22
2022-09-06T03:54:01.067Z,17.21
2022-09-06T03:55:01.226Z,17.2
2022-09-06T03:56:00.360Z,17.19
2022-09-06T03:57:00.523Z,17.18
2022-09-06T03:58:00.647Z,17.18
2022-09-06T03:59:00.798Z,17.17
2022-09-06T04:00:00.947Z,17.17
2022-09-06T04:01:01.194Z,17.16
2022-09-06T04:02:01.343Z,17.14
2022-09-06T04:03:01.823Z,17.11
2022-09-06T04:04:00.537Z,17.1
2022-09-06T04:05:00.682Z,17.09
2022-09-06T04:06:00.833Z,17.1
2022-09-06T04:07:00.995Z,17.1
2022-09-06T04:08:01.115Z,17.1
2022-09-06T04:09:00.277Z,17.09
2022-09-06T04:10:00.450Z,17.09
2022-09-06T04:11:00.584Z,17.08
2022-09-06T04:12:00.733Z,17.08
2022-09-06T04:13:00.875Z,17.09
2022-09-06T04:14:01.021Z,17.07
2022-09-06T04:15:01.207Z,17.04
2022-09-06T04:16:00.318Z,17.02
2022-09-06T04:17:00.560Z,16.99
2022-09-06T04:18:00.620Z,16.98
2022-09-06T04:19:00.774Z,16.95
2022-09-06T04:20:00.949Z,16.94
2022-09-06T04:21:01.089Z,16.92
2022-09-06T04:22:01.219Z,16.92
2022-09-06T04:23:00.374Z,16.9
2022-09-06T04:24:00.520Z,16.88
2022-09-06T04:25:00.692Z,16.87
2022-09-06T04:26:00.833Z,16.86
2022-09-06T04:27:00.976Z,16.84
2022-09-06T04:28:01.125Z,16.84
2022-09-06T04:29:00.266Z,16.82
2022-09-06T04:30:00.423Z,16.81
2022-09-06T04:31:04.294Z,16.8
2022-09-06T04:32:00.755Z,16.8
2022-09-06T04:33:00.864Z,16.79
2022-09-06T04:34:01.018Z,16.8
2022-09-06T04:35:01.156Z,16.8
2022-09-06T04:36:00.320Z,16.81
2022-09-06T04:37:00.479Z,16.82
2022-09-06T04:38:00.606Z,16.84
2022-09-06T04:39:00.754Z,16.82
2022-09-06T04:40:01.032Z,16.78
2022-09-06T04:41:01.047Z,16.78
2022-09-06T04:42:01.213Z,16.77
2022-09-06T04:43:00.346Z,16.78
2022-09-06T04:44:00.484Z,16.8
2022-09-06T04:45:00.628Z,16.81
2022-09-06T04:46:00.801Z,16.81
2022-09-06T04:47:00.946Z,16.81
2022-09-06T04:48:01.063Z,16.8
2022-09-06T04:49:01.229Z,16.8
2022-09-06T04:50:00.368Z,16.8
2022-09-06T04:51:00.522Z,16.8
2022-09-06T04:52:00.686Z,16.8
2022-09-06T04:53:00.823Z,16.79
2022-09-06T04:54:00.984Z,16.79
2022-09-06T04:55:01.133Z,16.77
2022-09-06T04:56:00.282Z,16.74
2022-09-06T04:57:00.460Z,16.71
2022-09-06T04:58:00.585Z,16.71
2022-09-06T04:59:00.734Z,16.71
2022-09-06T05:00:00.882Z,16.71
2022-09-06T05:01:01.114Z,16.71
2022-09-06T05:02:01.276Z,16.71
2022-09-06T05:03:00.328Z,16.73
2022-09-06T05:04:00.479Z,16.73
2022-09-06T05:05:00.623Z,16.74
2022-09-06T05:06:00.764Z,16.75
2022-09-06T05:07:00.938Z,16.77
2022-09-06T05:08:01.063Z,16.78
2022-09-06T05:09:01.226Z,16.78
2022-09-06T05:10:00.362Z,16.78
2022-09-06T05:11:00.507Z,16.77
2022-09-06T05:12:00.676Z,16.78
2022-09-06T05:13:00.789Z,16.78
2022-09-06T05:14:00.958Z,16.79
2022-09-06T05:15:01.095Z,16.79
2022-09-06T05:16:01.529Z,16.79
2022-09-06T05:17:00.450Z,16.81
2022-09-06T05:18:00.583Z,16.82
2022-09-06T05:19:00.690Z,16.85
2022-09-06T05:20:00.840Z,16.86
2022-09-06T05:21:01.014Z,16.87
2022-09-06T05:22:01.145Z,16.88
2022-09-06T05:23:00.297Z,16.89
2022-09-06T05:24:00.441Z,16.91
2022-09-06T05:25:00.596Z,16.92
2022-09-06T05:26:00.745Z,16.94
2022-09-06T05:27:00.885Z,16.98
2022-09-06T05:28:01.036Z,17.01
2022-09-06T05:29:01.217Z,17.01
2022-09-06T05:30:00.324Z,17.03
2022-09-06T05:31:00.464Z,17.06
2022-09-06T05:32:00.678Z,17.08
2022-09-06T05:33:00.763Z,17.09
2022-09-06T05:34:00.924Z,17.09
2022-09-06T05:35:01.114Z,17.1
2022-09-06T05:36:01.223Z,17.14
2022-09-06T05:37:00.376Z,17.17
2022-09-06T05:38:00.511Z,17.18
2022-09-06T05:39:00.667Z,17.2
2022-09-06T05:40:00.840Z,17.23
2022-09-06T05:41:00.997Z,17.24
2022-09-06T05:42:01.097Z,17.28
2022-09-06T05:43:01.254Z,17.3
2022-09-06T05:44:00.400Z,17.29
2022-09-06T05:45:00.551Z,17.29
2022-09-06T05:46:00.820Z,17.29
2022-09-06T05:47:00.859Z,17.31
2022-09-06T05:48:00.995Z,17.33
2022-09-06T05:49:01.273Z,17.35
2022-09-06T05:50:00.290Z,17.35
2022-09-06T05:51:00.464Z,17.38
2022-09-06T05:52:00.586Z,17.4
2022-09-06T05:53:00.725Z,17.4
2022-09-06T05:54:00.883Z,17.4
2022-09-06T05:55:01.022Z,17.43
2022-09-06T05:56:01.170Z,17.44
2022-09-06T05:57:00.314Z,17.45
2022-09-06T05:58:00.448Z,17.47
2022-09-06T05:59:00.598Z,17.48
2022-09-06T06:00:00.733Z,17.48
2022-09-06T06:01:00.940Z,17.48
2022-09-06T06:02:04.330Z,17.48
2022-09-06T06:03:01.187Z,17.49
2022-09-06T06:04:00.329Z,17.49
2022-09-06T06:05:00.465Z,17.5
2022-09-06T06:06:00.613Z,17.52
2022-09-06T06:07:00.784Z,17.53
2022-09-06T06:08:00.909Z,17.54
2022-09-06T06:09:01.056Z,17.55
2022-09-06T06:10:01.201Z,17.58
2022-09-06T06:11:00.347Z,17.6
2022-09-06T06:12:00.505Z,17.62
2022-09-06T06:13:00.642Z,17.64
2022-09-06T06:14:00.797Z,17.66
2022-09-06T06:15:00.943Z,17.68
2022-09-06T06:16:01.109Z,17.72
2022-09-06T06:17:01.342Z,17.73
2022-09-06T06:18:00.391Z,17.76
2022-09-06T06:19:00.538Z,17.79
2022-09-06T06:20:00.678Z,17.82
2022-09-06T06:21:00.839Z,17.87
2022-09-06T06:22:00.985Z,17.91
2022-09-06T06:23:01.136Z,17.94
2022-09-06T06:24:00.254Z,17.98
2022-09-06T06:25:00.414Z,18
2022-09-06T06:26:00.551Z,18.04
2022-09-06T06:27:00.724Z,18.05
2022-09-06T06:28:00.859Z,18.05
2022-09-06T06:29:00.995Z,18.05
2022-09-06T06:30:01.129Z,18.05
2022-09-06T06:31:00.278Z,18.06
2022-09-06T06:32:00.512Z,18.08
2022-09-06T06:33:00.588Z,18.11
2022-09-06T06:34:00.720Z,18.12
2022-09-06T06:35:00.875Z,18.14
2022-09-06T06:36:01.023Z,18.17
2022-09-06T06:37:01.170Z,18.18
2022-09-06T06:38:00.332Z,18.2
2022-09-06T06:39:00.502Z,18.21
2022-09-06T06:40:00.648Z,18.22
2022-09-06T06:41:04.536Z,18.23
2022-09-06T06:42:00.913Z,18.25
2022-09-06T06:43:01.061Z,18.26
2022-09-06T06:44:01.227Z,18.27
2022-09-06T06:45:00.355Z,18.29
2022-09-06T06:46:00.544Z,18.3
2022-09-06T06:47:00.662Z,18.32
2022-09-06T06:48:00.801Z,18.32
2022-09-06T06:49:00.958Z,18.32
2022-09-06T06:50:01.117Z,18.3
2022-09-06T06:51:01.250Z,18.3
2022-09-06T06:52:00.393Z,18.29
2022-09-06T06:53:00.549Z,18.3
2022-09-06T06:54:00.711Z,18.29
2022-09-06T06:55:00.867Z,18.29
2022-09-06T06:56:01.017Z,18.29
2022-09-06T06:57:01.141Z,18.29
2022-09-06T06:58:00.281Z,18.29
2022-09-06T06:59:00.421Z,18.29
2022-09-06T07:00:00.579Z,18.28
2022-09-06T07:01:00.866Z,18.28
2022-09-06T07:02:01.207Z,18.29
2022-09-06T07:03:01.028Z,18.3
2022-09-06T07:04:01.185Z,18.33
2022-09-06T07:05:00.686Z,18.37
2022-09-06T07:07:30.762Z,18.44
2022-09-06T07:08:00.753Z,18.48
2022-09-06T07:09:00.910Z,18.51
2022-09-06T07:11:01.265Z,18.62
2022-09-06T07:12:00.361Z,18.68
2022-09-06T07:13:00.504Z,18.74
2022-09-06T07:14:00.661Z,18.8
2022-09-06T07:15:00.813Z,18.84
2022-09-06T07:16:01.040Z,18.91
2022-09-06T07:17:01.130Z,18.98
2022-09-06T07:18:00.271Z,19.04
2022-09-06T07:19:00.654Z,19.12
2022-09-06T07:20:16.166Z,19.15
2022-09-06T07:22:04.481Z,19.2
2022-09-06T07:25:00.301Z,19.32
2022-09-06T07:26:00.446Z,19.39
2022-09-06T07:28:05.698Z,19.48
2022-09-06T07:29:00.909Z,19.55
2022-09-06T07:30:01.050Z,19.6
2022-09-06T07:31:01.483Z,19.66
2022-09-06T07:32:13.032Z,19.7
2022-09-06T07:33:00.496Z,19.74
2022-09-06T07:34:00.668Z,19.8
2022-09-06T07:35:00.795Z,19.85
2022-09-06T07:36:00.940Z,19.91
2022-09-06T07:37:01.162Z,19.91
2022-09-06T07:38:01.239Z,19.92
2022-09-06T07:39:00.432Z,19.97
2022-09-06T07:40:00.650Z,19.98
2022-09-06T07:41:00.706Z,20
2022-09-06T07:42:00.856Z,20.02
2022-09-06T07:43:00.996Z,20.03
2022-09-06T07:44:01.165Z,20.04
2022-09-06T07:45:00.291Z,20.05
2022-09-06T07:46:00.453Z,20.09
2022-09-06T07:48:00.763Z,20.2
2022-09-06T07:49:00.926Z,20.27
2022-09-06T07:51:01.191Z,20.34
2022-09-06T07:52:00.335Z,20.33
2022-09-06T07:53:10.769Z,20.34
2022-09-06T07:54:28.640Z,20.34
2022-09-06T07:55:00.791Z,20.33
2022-09-06T07:56:00.931Z,20.33
2022-09-06T07:57:01.083Z,20.34
2022-09-06T07:58:01.236Z,20.39
2022-09-06T07:59:00.409Z,20.43
2022-09-06T08:00:00.530Z,20.46
2022-09-06T08:01:00.730Z,20.46
2022-09-06T08:02:00.915Z,20.47
2022-09-06T08:03:00.966Z,20.47
2022-09-06T08:04:01.159Z,20.47
2022-09-06T08:05:00.266Z,20.47
2022-09-06T08:09:00.929Z,20.58
2022-09-06T08:10:01.027Z,20.61
2022-09-06T08:11:01.191Z,20.64
2022-09-06T08:12:00.336Z,20.69
2022-09-06T08:13:00.492Z,20.74
2022-09-06T08:14:00.659Z,20.81
2022-09-06T08:15:00.784Z,20.88
2022-09-06T08:16:00.958Z,20.95
2022-09-06T08:17:01.092Z,21.02
2022-09-06T08:18:01.229Z,21.14
2022-09-06T08:19:00.409Z,21.29
2022-09-06T08:20:00.537Z,21.44
2022-09-06T08:21:00.681Z,21.57
2022-09-06T08:22:00.825Z,21.72
2022-09-06T08:23:00.985Z,21.87
2022-09-06T08:24:01.167Z,21.97
2022-09-06T08:25:00.269Z,22.08
2022-09-06T08:26:00.423Z,22.16
2022-09-06T08:27:00.579Z,22.23
2022-09-06T08:28:00.724Z,22.27
2022-09-06T08:29:00.897Z,22.32
2022-09-06T08:30:01.023Z,22.34
2022-09-06T08:31:01.173Z,22.32
2022-09-06T08:32:00.378Z,22.25
2022-09-06T08:33:00.454Z,22.19
2022-09-06T08:34:00.620Z,22.16
2022-09-06T08:35:00.748Z,22.18
2022-09-06T08:36:00.893Z,22.23
2022-09-06T08:37:01.043Z,22.29
2022-09-06T08:38:01.188Z,22.34
2022-09-06T08:39:00.362Z,22.37
2022-09-06T08:40:00.513Z,22.39
2022-09-06T08:41:00.636Z,22.43
2022-09-06T08:42:00.774Z,22.48
2022-09-06T08:43:00.936Z,22.55
2022-09-06T08:45:01.220Z,22.57
2022-09-06T08:46:00.356Z,22.6
2022-09-06T08:47:00.577Z,22.66
2022-09-06T08:48:00.662Z,22.67
2022-09-06T08:49:00.817Z,22.69
2022-09-06T08:50:00.951Z,22.7
2022-09-06T08:51:01.101Z,22.76
2022-09-06T08:52:01.244Z,22.82
2022-09-06T08:53:16.282Z,22.84
2022-09-06T08:54:00.556Z,22.87
2022-09-06T08:55:00.677Z,22.92
2022-09-06T08:56:00.829Z,22.97
2022-09-06T08:57:00.981Z,22.99
2022-09-06T08:58:01.117Z,23.05
2022-09-06T08:59:00.301Z,23.1
2022-09-06T09:00:00.412Z,23.07
2022-09-06T09:01:00.617Z,22.99
2022-09-06T09:02:00.793Z,22.94
2022-09-06T09:03:00.871Z,22.92
2022-09-06T09:04:01.037Z,22.91
2022-09-06T09:05:01.153Z,22.91
2022-09-06T09:06:00.298Z,22.9
2022-09-06T09:07:00.439Z,22.88
2022-09-06T09:08:00.592Z,22.9
2022-09-06T09:09:00.760Z,22.91
2022-09-06T09:10:00.893Z,22.9
2022-09-06T09:11:01.074Z,22.93
2022-09-06T09:12:01.184Z,22.98
2022-09-06T09:13:00.337Z,23.02
2022-09-06T09:14:00.486Z,23.05
2022-09-06T09:15:00.628Z,23.07
2022-09-06T09:16:00.841Z,23.16
2022-09-06T09:17:00.932Z,23.18
2022-09-06T09:18:01.073Z,23.2
2022-09-06T09:19:01.227Z,23.28
2022-09-06T09:20:00.367Z,23.41
2022-09-06T09:21:00.541Z,23.49
2022-09-06T09:22:00.668Z,23.49
2022-09-06T09:23:00.819Z,23.55
2022-09-06T09:24:00.970Z,23.61
2022-09-06T09:25:01.108Z,23.62
2022-09-06T09:26:00.284Z,23.59
2022-09-06T09:27:00.413Z,23.55
2022-09-06T09:28:00.554Z,23.55
2022-09-06T09:29:00.701Z,23.59
2022-09-06T09:31:01.046Z,23.58
2022-09-06T09:32:01.198Z,23.6
2022-09-06T09:33:00.303Z,23.55
2022-09-06T09:34:00.455Z,23.51
2022-09-06T09:35:00.599Z,23.47
2022-09-06T09:36:00.763Z,23.51
2022-09-06T09:38:04.996Z,23.55
2022-09-06T09:39:01.181Z,23.57
2022-09-06T09:40:00.438Z,23.56
2022-09-06T09:41:00.495Z,23.59
2022-09-06T09:42:00.657Z,23.67
2022-09-06T09:43:00.783Z,23.7
2022-09-06T09:44:04.433Z,23.74
2022-09-06T09:45:01.092Z,23.85
2022-09-06T09:46:01.222Z,23.94
2022-09-06T09:47:00.436Z,23.98
2022-09-06T09:48:00.528Z,24.04
2022-09-06T09:49:00.662Z,24.12
2022-09-06T09:50:00.820Z,24.18
2022-09-06T09:51:00.967Z,24.2
2022-09-06T09:52:01.114Z,24.18
2022-09-06T09:53:00.279Z,24.16
2022-09-06T09:54:00.445Z,24.21
2022-09-06T09:55:00.592Z,24.26
2022-09-06T09:56:00.735Z,24.26
2022-09-06T09:57:00.890Z,24.28
2022-09-06T09:58:01.020Z,24.34
2022-09-06T09:59:01.184Z,24.49
2022-09-06T10:00:00.304Z,24.6
2022-09-06T10:01:00.573Z,24.69
2022-09-06T10:02:00.595Z,24.74
2022-09-06T10:03:00.795Z,24.77
2022-09-06T10:05:01.042Z,24.89
2022-09-06T10:06:02.557Z,24.99
2022-09-06T10:08:00.469Z,25.08
2022-09-06T10:09:00.619Z,25.1
2022-09-06T10:10:00.772Z,25.13
2022-09-06T10:11:00.943Z,25.18
2022-09-06T10:12:01.059Z,25.27
2022-09-06T10:13:01.213Z,25.35
2022-09-06T10:14:00.356Z,25.37
2022-09-06T10:15:02.454Z,25.42
2022-09-06T10:16:00.731Z,25.27
2022-09-06T10:17:00.784Z,25.2
2022-09-06T10:18:00.934Z,25.19
2022-09-06T10:19:01.090Z,25.18
2022-09-06T10:20:01.233Z,25.18
2022-09-06T10:21:00.406Z,25.13
2022-09-06T10:22:00.545Z,25.15
2022-09-06T10:23:00.660Z,25.13
2022-09-06T10:24:28.090Z,25.1
2022-09-06T10:25:00.959Z,25.13
2022-09-06T10:26:01.118Z,25.17
2022-09-06T10:27:00.285Z,25.19
2022-09-06T10:28:12.058Z,25.22
2022-09-06T10:29:00.554Z,25.23
2022-09-06T10:30:00.712Z,25.25
2022-09-06T10:31:00.891Z,25.27
2022-09-06T10:32:01.048Z,25.2
2022-09-06T10:33:01.168Z,25.16
2022-09-06T10:34:00.320Z,25.05
2022-09-06T10:35:00.466Z,24.95
2022-09-06T10:36:00.657Z,24.89
2022-09-06T10:37:00.789Z,24.83
2022-09-06T10:38:00.925Z,24.78
2022-09-06T10:39:03.902Z,24.76
2022-09-06T10:40:01.325Z,24.73
2022-09-06T10:41:00.369Z,24.75
2022-09-06T10:42:00.543Z,24.78
2022-09-06T10:43:00.667Z,24.85
2022-09-06T10:44:00.819Z,24.88
2022-09-06T10:45:00.964Z,24.86
2022-09-06T10:46:01.123Z,24.8
2022-09-06T10:47:00.282Z,24.76
2022-09-06T10:48:00.435Z,24.74
2022-09-06T10:49:00.560Z,24.71
2022-09-06T10:50:00.716Z,24.73
2022-09-06T10:51:00.861Z,24.74
2022-09-06T10:52:01.009Z,24.7
2022-09-06T10:53:01.161Z,24.66
2022-09-06T10:54:00.328Z,24.6
2022-09-06T10:55:00.479Z,24.56
2022-09-06T10:56:01.574Z,24.49
2022-09-06T10:57:00.813Z,24.45
2022-09-06T10:58:16.525Z,24.41
2022-09-06T11:00:01.211Z,24.35
2022-09-06T11:01:00.351Z,24.33
2022-09-06T11:02:00.609Z,24.28
2022-09-06T11:04:04.511Z,24.23
2022-09-06T11:06:01.065Z,24.1
2022-09-06T11:07:01.223Z,24.05
2022-09-06T11:09:00.576Z,23.97
2022-09-06T11:10:00.651Z,23.92
2022-09-06T11:11:00.792Z,23.91
2022-09-06T11:12:00.955Z,23.86
2022-09-06T11:13:01.111Z,23.76
2022-09-06T11:14:05.412Z,23.67
2022-09-06T11:15:00.423Z,23.59
2022-09-06T11:16:00.577Z,23.51
2022-09-06T11:17:00.693Z,23.38
2022-09-06T11:18:00.839Z,23.26
2022-09-06T11:19:00.986Z,23.17
2022-09-06T11:20:01.148Z,23.02
2022-09-06T11:21:00.270Z,22.92
2022-09-06T11:22:00.431Z,22.8
2022-09-06T11:23:00.579Z,22.69
2022-09-06T11:24:00.720Z,22.61
2022-09-06T11:25:00.885Z,22.51
2022-09-06T11:26:01.041Z,22.41
2022-09-06T11:27:01.171Z,22.34
2022-09-06T11:28:00.305Z,22.24
2022-09-06T11:29:00.461Z,22.13
2022-09-06T11:30:00.610Z,22.02
2022-09-06T11:31:00.829Z,21.95
2022-09-06T11:32:16.316Z,21.87
2022-09-06T11:33:01.073Z,21.75
2022-09-06T11:34:01.328Z,21.65
2022-09-06T11:35:00.390Z,21.55
2022-09-06T11:36:00.535Z,21.46
2022-09-06T11:37:00.700Z,21.37
2022-09-06T11:38:00.815Z,21.3
2022-09-06T11:39:00.972Z,21.2
2022-09-06T11:40:29.899Z,21.1
2022-09-06T11:41:00.262Z,21.01
2022-09-06T11:42:00.444Z,20.87
2022-09-06T11:43:00.559Z,20.71
2022-09-06T11:44:00.709Z,20.49
2022-09-06T11:45:00.857Z,20.33
2022-09-06T11:46:01.145Z,20.27
2022-09-06T11:47:01.191Z,20.15
2022-09-06T11:48:00.306Z,20.09
2022-09-06T11:49:00.446Z,20.07
2022-09-06T11:50:00.600Z,20.09
2022-09-06T11:51:00.748Z,20.06
2022-09-06T11:52:00.939Z,20.04
2022-09-06T11:53:01.044Z,20.03
2022-09-06T11:54:01.202Z,20.05
2022-09-06T11:55:00.346Z,20.05
2022-09-06T11:56:00.509Z,20.06
2022-09-06T11:57:00.686Z,20.11
2022-09-06T11:58:00.811Z,20.14
2022-09-06T11:59:00.955Z,20.13
2022-09-06T12:00:01.098Z,20.16
2022-09-06T12:01:01.241Z,20.15
2022-09-06T12:02:00.406Z,20.18
2022-09-06T12:04:04.314Z,20.12
2022-09-06T12:05:00.942Z,20.17
2022-09-06T12:06:00.991Z,20.16
2022-09-06T12:07:01.161Z,20.19
2022-09-06T12:08:00.353Z,20.24
2022-09-06T12:09:00.463Z,20.28
2022-09-06T12:10:00.600Z,20.29
2022-09-06T12:11:00.760Z,20.33
2022-09-06T12:12:00.903Z,20.34
2022-09-06T12:13:01.055Z,20.42
2022-09-06T12:14:01.222Z,20.43
2022-09-06T12:15:00.336Z,20.47
2022-09-06T12:16:00.535Z,20.48
2022-09-06T12:17:00.637Z,20.47
2022-09-06T12:18:00.791Z,20.47
2022-09-06T12:19:00.960Z,20.47
2022-09-06T12:20:01.093Z,20.47
2022-09-06T12:21:01.236Z,20.46
2022-09-06T12:22:00.374Z,20.49
2022-09-06T12:23:00.519Z,20.51
2022-09-06T12:24:00.683Z,20.48
2022-09-06T12:25:00.826Z,20.45
2022-09-06T12:26:00.970Z,20.44
2022-09-06T12:27:01.112Z,20.42
2022-09-06T12:28:00.262Z,20.45
2022-09-06T12:29:00.433Z,20.48
2022-09-06T12:30:00.558Z,20.45
2022-09-06T12:31:00.833Z,20.43
2022-09-06T12:32:00.870Z,20.42
2022-09-06T12:33:01.015Z,20.37
2022-09-06T12:34:01.172Z,20.33
2022-09-06T12:36:01.350Z,20.27
2022-09-06T12:37:00.603Z,20.25
2022-09-06T12:38:00.748Z,20.24
2022-09-06T12:39:00.899Z,20.29
2022-09-06T12:40:01.128Z,20.37
2022-09-06T12:41:01.213Z,20.37
2022-09-06T12:42:00.352Z,20.39
2022-09-06T12:43:00.492Z,20.34
2022-09-06T12:44:00.653Z,20.34
2022-09-06T12:45:00.802Z,20.41
2022-09-06T12:46:01.004Z,20.42
2022-09-06T12:47:01.094Z,20.37
2022-09-06T12:48:01.227Z,20.37
2022-09-06T12:49:00.372Z,20.44
2022-09-06T12:50:00.516Z,20.49
2022-09-06T12:51:00.686Z,20.55
2022-09-06T12:52:00.839Z,20.53
2022-09-06T12:53:00.974Z,20.5
2022-09-06T12:54:01.126Z,20.46
2022-09-06T12:55:00.266Z,20.46
2022-09-06T12:56:00.423Z,20.46
2022-09-06T12:57:00.593Z,20.47
2022-09-06T12:58:00.734Z,20.45
2022-09-06T12:59:00.874Z,20.44
2022-09-06T13:00:01.020Z,20.46
2022-09-06T13:01:01.173Z,20.49
2022-09-06T13:02:00.479Z,20.48
2022-09-06T13:03:00.504Z,20.49
2022-09-06T13:04:00.637Z,20.51
2022-09-06T13:05:00.762Z,20.51
2022-09-06T13:06:00.907Z,20.49
2022-09-06T13:07:01.048Z,20.47
2022-09-06T13:08:01.204Z,20.47
2022-09-06T13:09:00.364Z,20.48
2022-09-06T13:10:00.494Z,20.44
2022-09-06T13:11:00.648Z,20.41
2022-09-06T13:12:00.795Z,20.37
2022-09-06T13:13:00.940Z,20.33
2022-09-06T13:14:01.128Z,20.31
2022-09-06T13:15:01.246Z,20.32
2022-09-06T13:16:00.442Z,20.31
2022-09-06T13:17:00.542Z,20.31